Ridgeway, WI (53582)

5:33 PM CDT on August 30, 2015 (GMT -0500)
Kittleson Krest | | Change Station
CLOSE
Current Station
Personal Weather Station
Location: Barneveld, WI
Elevation: 1139 ft
Nearby Weather Stations

Elev 1139 ft 43.01 °N, 89.89 °W | Updated 1 second ago

Clear
Clear
73.0 °F
Feels Like 73 °F
N
4.0
Wind Variable Wind from WSW
Gusts 6.0 mph

Today
High -- | Low -- °F
--% Chance of Precip.
Yesterday
High -- | Low -- °F
Precip. -- in
6:21 AM 7:38 PM
Full, 98% visible
Pressure 30.04 in
Visibility 10.0 miles
Clouds Clear
Heat Index 73 °F
Dew Point 67 °F
Humidity 80%
Rainfall 0.00 in
Snow Depth Not available.
UV 2 out of 12
Pollen 9.50 out of 12
Air Quality Not available.
Flu Activity Not available.
METAR KMRJ 302215Z AUTO 23004KT 10SM CLR 23/18 A3004 RMK AO2
Pressure 30.04 in
Visibility 10.0 miles
Clouds Clear
Heat Index 73 °F
Dew Point 67 °F
Humidity 80%
Rainfall 0.00 in
Snow Depth Not available.
UV 2 out of 12
Pollen 9.50 out of 12
Air Quality Not available.
Flu Activity Not available.
METAR KMRJ 302215Z AUTO 23004KT 10SM CLR 23/18 A3004 RMK AO2

10-Day Weather Forecast

×

Almanac

Astronomy

Aug. 30, 2015 Rise Set
Actual Time
Civil Twilight
Nautical Twilight
Astronomical Twilight
Moon
Length of Visible Light
Length of Day
Tomorrow will be .
, % of the Moon is Illuminated

Today's Extremes

State Highs State Lows

Community

WunderPhotos

Upload Photos

1,851,074 photos uploaded!

WunderBlogs® & News

Nearby

Air Quality

  Air Quality AQ Index Pollutant
Not available.

Snow Depth

Station Depth Elevation

Earthquake Activity

City Distance Mag. Time & Date
Minimum magnitude displayed is 2.5.

Coastal Water Temperatures

Place Temperature

Stations

Nearby Weather Stations

Station Location Temp. Windchill Dew Point Humidity Wind Precip. Elev Updated Type